createdAt,value
2023-03-05T00:01:27.991Z,21.98
2023-03-05T00:03:56.153Z,26.73
2023-03-05T00:06:25.554Z,21.70
2023-03-05T00:08:53.579Z,23.55
2023-03-05T00:11:20.774Z,29.85
2023-03-05T00:13:52.752Z,32.20
2023-03-05T00:16:20.594Z,30.08
2023-03-05T00:18:47.918Z,28.42
2023-03-05T00:21:19.356Z,27.60
2023-03-05T00:23:46.405Z,32.35
2023-03-05T00:26:13.346Z,27.88
2023-03-05T00:28:40.998Z,30.80
2023-03-05T00:31:09.446Z,34.58
2023-03-05T00:33:36.337Z,34.08
2023-03-05T00:36:06.631Z,30.45
2023-03-05T00:38:33.787Z,29.30
2023-03-05T00:41:00.762Z,32.03
2023-03-05T00:43:27.784Z,25.17
2023-03-05T00:45:54.706Z,31.70
2023-03-05T00:48:23.159Z,29.30
2023-03-05T00:50:50.036Z,26.98
2023-03-05T00:53:17.036Z,24.08
2023-03-05T00:55:44.140Z,26.33
2023-03-05T00:58:11.068Z,27.10
2023-03-05T01:00:38.005Z,31.50
2023-03-05T01:03:05.674Z,29.70
2023-03-05T01:05:34.082Z,28.65
2023-03-05T01:08:01.114Z,27.90
2023-03-05T01:10:30.258Z,27.63
2023-03-05T01:12:58.050Z,29.58
2023-03-05T01:15:25.594Z,25.80
2023-03-05T01:17:52.757Z,27.08
2023-03-05T01:20:21.676Z,25.00
2023-03-05T01:22:50.058Z,24.25
2023-03-05T01:25:17.923Z,24.08
2023-03-05T01:27:45.071Z,19.73
2023-03-05T01:30:13.480Z,18.63
2023-03-05T01:32:40.837Z,21.52
2023-03-05T01:35:08.657Z,20.77
2023-03-05T01:37:35.600Z,24.45
2023-03-05T01:40:05.669Z,24.50
2023-03-05T01:42:32.636Z,24.70
2023-03-05T01:45:02.691Z,21.17
2023-03-05T01:47:30.122Z,19.30
2023-03-05T01:49:57.159Z,19.58
2023-03-05T01:52:25.297Z,19.33
2023-03-05T01:54:54.354Z,18.98
2023-03-05T01:57:25.112Z,22.20
2023-03-05T01:59:57.158Z,21.08
2023-03-05T02:02:25.446Z,18.95
2023-03-05T02:04:55.719Z,20.73
2023-03-05T02:07:23.230Z,26.55
2023-03-05T02:09:50.234Z,21.13
2023-03-05T02:12:17.961Z,19.38
2023-03-05T02:14:48.798Z,17.05
2023-03-05T02:17:15.925Z,17.98
2023-03-05T02:19:50.964Z,21.15
2023-03-05T02:22:21.834Z,21.60
2023-03-05T02:24:49.205Z,15.05
2023-03-05T02:27:16.724Z,19.05
2023-03-05T02:29:46.181Z,25.27
2023-03-05T02:32:13.943Z,21.52
2023-03-05T02:34:41.349Z,21.90
2023-03-05T02:37:10.322Z,18.80
2023-03-05T02:39:39.897Z,16.27
2023-03-05T02:42:08.278Z,17.05
2023-03-05T02:44:36.042Z,20.75
2023-03-05T02:47:03.170Z,15.35
2023-03-05T02:49:31.307Z,15.50
2023-03-05T02:51:58.241Z,15.98
2023-03-05T02:54:25.812Z,18.80
2023-03-05T02:56:54.193Z,15.27
2023-03-05T02:59:22.232Z,19.35
2023-03-05T03:01:49.262Z,15.32
2023-03-05T03:04:16.434Z,16.83
2023-03-05T03:06:43.345Z,16.38
2023-03-05T03:09:10.278Z,15.95
2023-03-05T03:11:37.295Z,19.42
2023-03-05T03:14:05.826Z,19.25
2023-03-05T03:16:34.104Z,22.20
2023-03-05T03:19:01.241Z,21.25
2023-03-05T03:21:28.224Z,17.92
2023-03-05T03:23:55.175Z,16.52
2023-03-05T03:26:22.244Z,18.23
2023-03-05T03:28:49.233Z,18.50
2023-03-05T03:31:17.661Z,19.15
2023-03-05T03:33:45.021Z,17.08
2023-03-05T03:36:12.081Z,18.05
2023-03-05T03:38:39.022Z,19.25
2023-03-05T03:41:08.011Z,18.17
2023-03-05T03:46:05.457Z,16.70
2023-03-05T03:48:34.066Z,17.85
2023-03-05T03:51:04.698Z,16.88
2023-03-05T03:53:31.663Z,16.67
2023-03-05T03:55:58.886Z,20.52
2023-03-05T03:58:26.075Z,21.13
2023-03-05T04:00:53.002Z,23.80
2023-03-05T04:03:19.969Z,20.50
2023-03-05T04:05:48.304Z,21.38
2023-03-05T04:08:15.224Z,19.73
2023-03-05T04:10:42.184Z,18.77
2023-03-05T04:13:09.410Z,28.08
2023-03-05T04:15:36.336Z,20.40
2023-03-05T04:18:03.312Z,20.45
2023-03-05T04:20:30.322Z,25.23
2023-03-05T04:22:58.626Z,16.77
2023-03-05T04:25:25.638Z,21.15
2023-03-05T04:27:53.344Z,17.98
2023-03-05T04:30:20.390Z,18.70
2023-03-05T04:32:47.288Z,24.60
2023-03-05T04:35:14.276Z,20.35
2023-03-05T04:37:41.652Z,25.10
2023-03-05T04:40:11.535Z,20.30
2023-03-05T04:42:38.436Z,25.70
2023-03-05T04:45:07.823Z,24.35
2023-03-05T04:47:34.879Z,20.92
2023-03-05T04:50:01.999Z,22.52
2023-03-05T04:52:28.985Z,20.25
2023-03-05T04:54:55.953Z,16.60
2023-03-05T04:57:24.252Z,20.30
2023-03-05T04:59:51.261Z,20.45
2023-03-05T05:02:18.158Z,16.77
2023-03-05T05:04:45.986Z,18.98
2023-03-05T05:07:13.003Z,20.02
2023-03-05T05:09:41.578Z,17.48
2023-03-05T05:12:10.547Z,20.60
2023-03-05T05:14:38.971Z,18.95
2023-03-05T05:17:06.037Z,16.65
2023-03-05T05:19:33.122Z,17.77
2023-03-05T05:22:00.473Z,23.27
2023-03-05T05:24:27.502Z,24.15
2023-03-05T05:26:54.673Z,17.98
2023-03-05T05:29:22.991Z,17.58
2023-03-05T05:31:51.622Z,19.52
2023-03-05T05:34:18.586Z,18.45
2023-03-05T05:36:45.532Z,22.35
2023-03-05T05:39:12.460Z,19.95
2023-03-05T05:41:39.413Z,17.42
2023-03-05T05:44:06.412Z,11.70
2023-03-05T05:46:33.499Z,13.00
2023-03-05T05:49:01.922Z,13.35
2023-03-05T05:51:28.823Z,18.13
2023-03-05T05:53:55.745Z,16.50
2023-03-05T05:56:22.821Z,15.70
2023-03-05T05:58:50.007Z,12.60
2023-03-05T06:01:19.289Z,14.90
2023-03-05T06:03:46.679Z,14.70
2023-03-05T06:06:16.520Z,14.27
2023-03-05T06:08:43.674Z,14.98
2023-03-05T06:11:11.237Z,11.15
2023-03-05T06:13:38.800Z,12.07
2023-03-05T06:16:08.153Z,9.25
2023-03-05T06:18:35.526Z,12.57
2023-03-05T06:21:04.626Z,15.38
2023-03-05T06:23:33.117Z,12.35
2023-03-05T06:26:01.623Z,14.57
2023-03-05T06:28:29.175Z,16.52
2023-03-05T06:31:03.352Z,11.80
2023-03-05T06:33:30.719Z,13.88
2023-03-05T06:35:57.924Z,14.43
2023-03-05T06:38:25.481Z,17.83
2023-03-05T06:40:53.824Z,11.63
2023-03-05T06:43:20.755Z,13.05
2023-03-05T06:45:48.087Z,13.77
2023-03-05T06:48:15.050Z,14.32
2023-03-05T06:50:42.142Z,9.55
2023-03-05T06:53:09.091Z,14.20
2023-03-05T06:55:39.757Z,16.42
2023-03-05T06:58:08.697Z,11.35
2023-03-05T07:00:35.752Z,12.40
2023-03-05T07:03:02.937Z,14.27
2023-03-05T07:05:29.953Z,17.70
2023-03-05T07:07:57.076Z,11.77
2023-03-05T07:10:24.014Z,13.68
2023-03-05T07:12:50.982Z,14.80
2023-03-05T07:15:19.372Z,17.17
2023-03-05T07:17:46.247Z,17.27
2023-03-05T07:20:13.534Z,16.40
2023-03-05T07:22:40.633Z,15.75
2023-03-05T07:25:08.322Z,13.88
2023-03-05T07:27:36.391Z,21.42
2023-03-05T07:30:05.258Z,23.20
2023-03-05T07:32:35.741Z,20.48
2023-03-05T07:35:03.076Z,16.00
2023-03-05T07:37:30.042Z,13.73
2023-03-05T07:39:56.982Z,16.15
2023-03-05T07:42:24.062Z,18.20
2023-03-05T07:44:57.712Z,17.95
2023-03-05T07:47:24.826Z,19.42
2023-03-05T07:49:53.130Z,18.38
2023-03-05T07:52:20.173Z,18.42
2023-03-05T07:54:47.170Z,16.67
2023-03-05T07:57:15.589Z,18.27
2023-03-05T07:59:43.265Z,19.77
2023-03-05T08:02:11.268Z,16.00
2023-03-05T08:04:38.560Z,19.95
2023-03-05T08:07:06.984Z,21.27
2023-03-05T08:09:34.029Z,18.73
2023-03-05T08:12:01.067Z,18.05
2023-03-05T08:14:28.237Z,19.48
2023-03-05T08:16:55.165Z,19.98
2023-03-05T08:19:22.211Z,18.20
2023-03-05T08:21:49.321Z,19.35
2023-03-05T08:24:17.685Z,21.15
2023-03-05T08:26:44.800Z,17.50
2023-03-05T08:29:11.828Z,17.98
2023-03-05T08:31:39.443Z,18.05
2023-03-05T08:34:06.887Z,21.33
2023-03-05T08:36:33.906Z,19.80
2023-03-05T08:39:01.041Z,17.63
2023-03-05T08:41:29.436Z,17.23
2023-03-05T08:43:56.459Z,20.23
2023-03-05T08:46:23.449Z,19.42
2023-03-05T08:48:50.686Z,22.20
2023-03-05T08:51:20.300Z,15.43
2023-03-05T08:53:47.669Z,19.63
2023-03-05T08:56:15.292Z,17.02
2023-03-05T08:58:44.067Z,19.38
2023-03-05T09:01:11.389Z,16.45
2023-03-05T09:03:38.498Z,16.10
2023-03-05T09:06:07.879Z,15.82
2023-03-05T09:08:35.461Z,19.35
2023-03-05T09:11:02.720Z,18.15
2023-03-05T09:13:29.778Z,20.02
2023-03-05T09:16:00.221Z,18.85
2023-03-05T09:18:27.738Z,17.77
2023-03-05T09:20:54.995Z,20.20
2023-03-05T09:23:22.405Z,20.42
2023-03-05T09:25:49.694Z,15.90
2023-03-05T09:28:16.970Z,18.77
2023-03-05T09:30:43.901Z,18.83
2023-03-05T09:33:12.587Z,18.90
2023-03-05T09:35:39.628Z,17.73
2023-03-05T09:38:06.788Z,14.77
2023-03-05T09:40:42.510Z,19.92
2023-03-05T09:43:17.566Z,20.55
2023-03-05T09:48:18.102Z,15.05
2023-03-05T09:50:50.542Z,16.45
2023-03-05T09:53:22.247Z,18.33
2023-03-05T09:55:50.730Z,16.17
2023-03-05T09:58:30.686Z,16.23
2023-03-05T10:01:01.030Z,20.33
2023-03-05T10:03:43.634Z,18.13
2023-03-05T10:06:16.207Z,15.88
2023-03-05T10:08:49.232Z,20.60
2023-03-05T10:11:38.995Z,20.58
2023-03-05T10:14:07.560Z,16.83
2023-03-05T10:17:03.861Z,16.35
2023-03-05T10:19:45.687Z,19.92
2023-03-05T10:22:18.431Z,13.73
2023-03-05T10:25:04.438Z,17.17
2023-03-05T10:27:42.917Z,15.95
2023-03-05T10:30:22.836Z,18.45
2023-03-05T10:32:55.001Z,15.90
2023-03-05T10:35:40.951Z,16.75
2023-03-05T10:38:44.576Z,16.60
2023-03-05T10:41:17.169Z,12.70
2023-03-05T10:43:49.520Z,15.38
2023-03-05T10:46:17.780Z,16.98
2023-03-05T10:48:47.211Z,11.30
2023-03-05T10:51:19.246Z,10.88
2023-03-05T10:53:53.228Z,13.68
2023-03-05T10:56:23.055Z,11.90
2023-03-05T10:58:52.124Z,16.38
2023-03-05T11:01:24.748Z,15.25
2023-03-05T11:03:55.257Z,17.42
2023-03-05T11:06:33.071Z,17.02
2023-03-05T11:09:18.324Z,12.23
2023-03-05T11:11:45.625Z,17.35
2023-03-05T11:14:30.031Z,14.10
2023-03-05T11:16:57.481Z,14.23
2023-03-05T11:19:30.014Z,19.27
2023-03-05T11:22:14.370Z,13.05
2023-03-05T11:24:41.853Z,11.52
2023-03-05T11:27:23.582Z,14.23
2023-03-05T11:29:51.116Z,15.45
2023-03-05T11:32:21.648Z,17.20
2023-03-05T11:34:48.737Z,13.38
2023-03-05T11:37:23.269Z,13.68
2023-03-05T11:40:06.373Z,11.98
2023-03-05T11:42:33.601Z,14.63
2023-03-05T11:45:01.096Z,12.70
2023-03-05T11:47:32.663Z,14.27
2023-03-05T11:50:04.387Z,12.20
2023-03-05T11:52:39.902Z,15.00
2023-03-05T11:55:12.727Z,12.27
2023-03-05T11:57:43.025Z,15.00
2023-03-05T12:00:14.288Z,13.70
2023-03-05T12:02:41.342Z,15.73
2023-03-05T12:05:08.476Z,12.07
2023-03-05T12:07:40.670Z,12.55
2023-03-05T12:10:15.172Z,11.43
2023-03-05T12:12:45.099Z,14.18
2023-03-05T12:15:32.587Z,16.73
2023-03-05T12:18:07.680Z,15.05
2023-03-05T12:20:38.723Z,12.23
2023-03-05T12:23:12.625Z,12.15
2023-03-05T12:25:46.987Z,12.57
2023-03-05T12:28:15.526Z,14.50
2023-03-05T12:31:00.090Z,12.65
2023-03-05T12:33:33.446Z,15.50
2023-03-05T12:36:37.064Z,13.02
2023-03-05T12:39:36.702Z,11.40
2023-03-05T12:42:52.117Z,12.40
2023-03-05T12:45:31.063Z,11.27
2023-03-05T12:48:42.653Z,9.98
2023-03-05T12:51:29.009Z,11.52
2023-03-05T12:53:56.171Z,12.23
2023-03-05T12:56:27.459Z,11.07
2023-03-05T12:58:59.016Z,9.95
2023-03-05T13:01:42.616Z,10.60
2023-03-05T13:04:16.134Z,12.18
2023-03-05T13:06:43.248Z,12.43
2023-03-05T13:09:17.379Z,11.18
2023-03-05T13:11:47.958Z,12.10
2023-03-05T13:14:35.707Z,10.32
2023-03-05T13:19:29.992Z,9.32
2023-03-05T13:22:01.156Z,13.43
2023-03-05T13:24:29.391Z,11.88
2023-03-05T13:26:57.079Z,14.55
2023-03-05T13:29:28.203Z,12.55
2023-03-05T13:31:59.152Z,14.73
2023-03-05T13:34:37.436Z,12.60
2023-03-05T13:37:17.605Z,11.90
2023-03-05T13:39:49.446Z,9.30
2023-03-05T13:42:18.059Z,12.15
2023-03-05T13:44:53.813Z,9.10
2023-03-05T13:47:23.618Z,9.93
2023-03-05T13:49:56.336Z,13.68
2023-03-05T13:52:28.083Z,12.80
2023-03-05T13:54:55.343Z,11.52
2023-03-05T13:57:46.944Z,12.55
2023-03-05T14:03:14.607Z,11.98
2023-03-05T14:05:43.886Z,14.48
2023-03-05T14:08:19.291Z,13.02
2023-03-05T14:10:46.794Z,11.65
2023-03-05T14:13:19.071Z,11.57
2023-03-05T14:16:06.779Z,13.85
2023-03-05T14:18:35.436Z,11.98
2023-03-05T14:21:05.612Z,14.77
2023-03-05T14:23:36.476Z,13.48
2023-03-05T14:26:28.796Z,12.77
2023-03-05T14:29:00.241Z,15.30
2023-03-05T14:31:28.851Z,15.63
2023-03-05T14:34:01.314Z,15.23
2023-03-05T14:36:29.591Z,15.30
2023-03-05T14:38:57.023Z,14.65
2023-03-05T14:41:36.729Z,13.27
2023-03-05T14:44:12.057Z,13.50
2023-03-05T14:46:39.301Z,15.60
2023-03-05T14:49:08.012Z,16.95
2023-03-05T14:51:39.820Z,12.68
2023-03-05T14:54:06.979Z,12.73
2023-03-05T14:56:35.535Z,15.40
2023-03-05T15:01:29.987Z,12.07
2023-03-05T15:03:57.010Z,15.02
2023-03-05T15:06:30.864Z,13.40
2023-03-05T15:08:58.216Z,13.50
2023-03-05T15:11:25.196Z,13.93
2023-03-05T15:13:52.175Z,13.85
2023-03-05T15:16:20.643Z,15.60
2023-03-05T15:18:48.299Z,17.02
2023-03-05T15:21:18.570Z,19.15
2023-03-05T15:23:46.928Z,17.95
2023-03-05T15:26:15.309Z,16.88
2023-03-05T15:28:43.205Z,14.30
2023-03-05T15:31:11.135Z,13.15
2023-03-05T15:33:38.347Z,15.90
2023-03-05T15:36:07.775Z,16.40
2023-03-05T15:38:35.026Z,16.02
2023-03-05T15:41:03.432Z,14.23
2023-03-05T15:43:31.665Z,13.77
2023-03-05T15:45:59.015Z,16.70
2023-03-05T15:48:26.065Z,16.27
2023-03-05T15:50:53.442Z,15.73
2023-03-05T15:53:22.565Z,17.40
2023-03-05T15:55:49.918Z,15.73
2023-03-05T15:58:22.158Z,13.13
2023-03-05T16:00:57.979Z,13.43
2023-03-05T16:03:27.290Z,14.95
2023-03-05T16:05:54.593Z,11.60
2023-03-05T16:08:21.739Z,12.48
2023-03-05T16:10:52.514Z,14.07
2023-03-05T16:13:21.846Z,16.35
2023-03-05T16:15:53.110Z,12.82
2023-03-05T16:18:20.713Z,15.38
2023-03-05T16:20:47.816Z,15.57
2023-03-05T16:25:46.945Z,15.40
2023-03-05T16:28:14.612Z,14.63
2023-03-05T16:30:44.156Z,13.93
2023-03-05T16:33:12.934Z,12.88
2023-03-05T16:38:07.080Z,14.95
2023-03-05T16:41:02.918Z,14.60
2023-03-05T16:43:25.192Z,12.73
2023-03-05T16:45:53.504Z,13.00
2023-03-05T16:48:20.432Z,13.68
2023-03-05T16:50:47.348Z,16.02
2023-03-05T16:53:15.803Z,12.98
2023-03-05T16:55:44.703Z,12.65
2023-03-05T16:58:11.568Z,13.45
2023-03-05T17:00:38.718Z,14.10
2023-03-05T17:03:07.591Z,15.95
2023-03-05T17:05:36.035Z,13.65
2023-03-05T17:08:04.346Z,12.27
2023-03-05T17:10:33.919Z,15.82
2023-03-05T17:13:06.090Z,13.77
2023-03-05T17:15:35.084Z,14.57
2023-03-05T17:20:35.654Z,13.52
2023-03-05T17:23:03.119Z,11.43
2023-03-05T17:25:31.122Z,9.95
2023-03-05T17:27:59.884Z,13.75
2023-03-05T17:30:27.341Z,11.43
2023-03-05T17:32:54.653Z,14.20
2023-03-05T17:35:23.698Z,13.82
2023-03-05T17:37:55.509Z,12.23
2023-03-05T17:40:23.702Z,12.25
2023-03-05T17:42:59.818Z,12.18
2023-03-05T17:45:27.967Z,13.30
2023-03-05T17:47:55.891Z,12.48
2023-03-05T17:50:26.019Z,11.77
2023-03-05T17:52:55.754Z,10.80
2023-03-05T17:55:24.995Z,11.13
2023-03-05T17:57:52.174Z,10.50
2023-03-05T18:00:21.057Z,12.82
2023-03-05T18:05:16.344Z,11.07
2023-03-05T18:07:44.181Z,12.52
2023-03-05T18:10:14.763Z,11.15
2023-03-05T18:12:41.984Z,12.95
2023-03-05T18:15:11.741Z,11.93
2023-03-05T18:17:39.621Z,11.85
2023-03-05T18:20:08.718Z,12.23
2023-03-05T18:22:35.979Z,10.05
2023-03-05T18:25:03.054Z,10.93
2023-03-05T18:27:31.429Z,12.18
2023-03-05T18:29:58.402Z,13.70
2023-03-05T18:32:25.529Z,9.32
2023-03-05T18:34:52.538Z,11.18
2023-03-05T18:37:19.478Z,10.48
2023-03-05T18:39:46.514Z,12.85
2023-03-05T18:42:14.173Z,10.30
2023-03-05T18:44:43.311Z,9.45
2023-03-05T18:47:10.404Z,10.98
2023-03-05T18:49:38.105Z,11.30
2023-03-05T18:52:05.377Z,14.32
2023-03-05T18:54:33.297Z,10.23
2023-03-05T18:57:01.489Z,10.07
2023-03-05T18:59:29.673Z,9.00
2023-03-05T19:02:00.401Z,14.20
2023-03-05T19:04:27.714Z,9.98
2023-03-05T19:06:54.886Z,9.35
2023-03-05T19:09:54.960Z,7.72
2023-03-05T19:12:23.365Z,13.50
2023-03-05T19:14:51.277Z,11.75
2023-03-05T19:17:21.950Z,11.10
2023-03-05T19:19:52.538Z,12.40
2023-03-05T19:22:19.660Z,11.73
2023-03-05T19:24:46.729Z,13.80
2023-03-05T19:27:15.037Z,12.60
2023-03-05T19:29:43.366Z,12.43
2023-03-05T19:32:11.885Z,9.35
2023-03-05T19:34:41.265Z,12.18
2023-03-05T19:37:08.509Z,11.52
2023-03-05T19:39:35.551Z,9.32
2023-03-05T19:42:02.911Z,11.00
2023-03-05T19:44:30.366Z,16.63
2023-03-05T19:46:57.320Z,11.82
2023-03-05T19:49:28.105Z,11.63
2023-03-05T19:51:57.425Z,11.63
2023-03-05T19:54:24.716Z,10.23
2023-03-05T19:56:55.063Z,14.20
2023-03-05T19:59:24.420Z,11.10
2023-03-05T20:01:52.935Z,10.57
2023-03-05T20:04:22.781Z,10.85
2023-03-05T20:06:50.456Z,10.85
2023-03-05T20:09:19.240Z,12.52
2023-03-05T20:11:47.158Z,13.48
2023-03-05T20:14:14.775Z,13.40
2023-03-05T20:16:43.080Z,10.90
2023-03-05T20:19:16.573Z,10.02
2023-03-05T20:21:44.541Z,10.63
2023-03-05T20:24:13.085Z,9.48
2023-03-05T20:26:42.852Z,10.27
2023-03-05T20:29:10.703Z,10.38
2023-03-05T20:31:38.859Z,9.20
2023-03-05T20:34:07.219Z,11.75
2023-03-05T20:36:37.318Z,10.77
2023-03-05T20:39:06.174Z,11.13
2023-03-05T20:41:34.957Z,14.85
2023-03-05T20:44:03.915Z,9.45
2023-03-05T20:48:59.814Z,13.77
2023-03-05T20:51:29.343Z,10.73
2023-03-05T20:53:58.683Z,12.85
2023-03-05T20:56:27.936Z,12.35
2023-03-05T20:58:55.896Z,9.73
2023-03-05T21:01:24.728Z,11.32
2023-03-05T21:03:53.864Z,14.05
2023-03-05T21:06:20.779Z,11.50
2023-03-05T21:08:47.834Z,9.88
2023-03-05T21:11:15.836Z,10.68
2023-03-05T21:13:44.465Z,11.90
2023-03-05T21:16:14.724Z,8.80
2023-03-05T21:18:44.371Z,12.50
2023-03-05T21:21:11.394Z,13.25
2023-03-05T21:23:38.350Z,12.15
2023-03-05T21:26:08.328Z,9.27
2023-03-05T21:28:35.642Z,10.18
2023-03-05T21:31:07.756Z,9.68
2023-03-05T21:33:35.631Z,11.18
2023-03-05T21:36:05.657Z,12.55
2023-03-05T21:38:34.205Z,12.18
2023-03-05T21:41:02.374Z,10.52
2023-03-05T21:43:31.513Z,9.73
2023-03-05T21:46:03.180Z,10.23
2023-03-05T21:48:30.951Z,8.98
2023-03-05T21:51:01.414Z,10.82
2023-03-05T21:53:29.760Z,10.63
2023-03-05T21:56:23.878Z,12.63
2023-03-05T21:58:52.313Z,10.75
2023-03-05T22:01:21.611Z,12.13
2023-03-05T22:03:51.634Z,14.35
2023-03-05T22:06:20.816Z,11.23
2023-03-05T22:08:49.250Z,13.13
2023-03-05T22:11:18.318Z,11.98
2023-03-05T22:13:45.302Z,11.30
2023-03-05T22:16:15.326Z,12.30
2023-03-05T22:18:42.305Z,11.23
2023-03-05T22:21:17.843Z,11.65
2023-03-05T22:23:44.910Z,11.63
2023-03-05T22:26:17.473Z,9.90
2023-03-05T22:28:44.428Z,15.02
2023-03-05T22:31:11.805Z,10.93
2023-03-05T22:33:38.922Z,12.77
2023-03-05T22:36:09.909Z,9.63
2023-03-05T22:38:36.993Z,10.38
2023-03-05T22:41:07.477Z,13.85
2023-03-05T22:43:35.856Z,9.10
2023-03-05T22:46:09.744Z,11.13
2023-03-05T22:48:36.757Z,12.68
2023-03-05T22:51:03.783Z,10.40
2023-03-05T22:53:31.804Z,11.57
2023-03-05T22:55:58.868Z,8.75
2023-03-05T22:58:26.969Z,12.43
2023-03-05T23:00:55.852Z,10.63
2023-03-05T23:03:41.598Z,12.07
2023-03-05T23:06:25.273Z,9.02
2023-03-05T23:08:52.233Z,10.80
2023-03-05T23:11:19.220Z,9.80
2023-03-05T23:13:46.856Z,14.02
2023-03-05T23:16:15.560Z,9.07
2023-03-05T23:18:42.794Z,10.13
2023-03-05T23:21:09.698Z,12.10
2023-03-05T23:23:36.719Z,11.30
2023-03-05T23:26:03.814Z,12.23
2023-03-05T23:28:31.820Z,9.65
2023-03-05T23:30:59.277Z,10.40
2023-03-05T23:33:27.572Z,10.50
2023-03-05T23:35:56.245Z,10.60
2023-03-05T23:38:24.367Z,14.73
2023-03-05T23:40:54.102Z,12.80
2023-03-05T23:43:22.555Z,14.32
2023-03-05T23:45:49.734Z,12.35
2023-03-05T23:48:17.478Z,11.02
2023-03-05T23:50:50.694Z,12.15
2023-03-05T23:53:19.998Z,12.55
2023-03-05T23:55:47.285Z,12.80
2023-03-05T23:58:16.967Z,8.70
